sensor_id;sensor_type;location;lat;lon;timestamp;pressure;altitude;pressure_sealevel;temperature;humidity
42003;BME280;27693;50.506;30.832;2023-07-13T00:01:02;99558.42;;;20.24;58.44
42003;BME280;27693;50.506;30.832;2023-07-13T00:02:05;99559.39;;;20.23;58.82
42003;BME280;27693;50.506;30.832;2023-07-13T00:03:08;99557.60;;;20.23;58.31
42003;BME280;27693;50.506;30.832;2023-07-13T00:04:11;99551.61;;;20.21;58.22
42003;BME280;27693;50.506;30.832;2023-07-13T00:05:13;99557.71;;;20.22;58.37
42003;BME280;27693;50.506;30.832;2023-07-13T00:06:17;99554.11;;;20.23;58.28
42003;BME280;27693;50.506;30.832;2023-07-13T00:07:22;99554.67;;;20.26;58.24
42003;BME280;27693;50.506;30.832;2023-07-13T00:08:25;99554.81;;;20.25;58.71
42003;BME280;27693;50.506;30.832;2023-07-13T00:09:29;99552.32;;;20.23;58.23
42003;BME280;27693;50.506;30.832;2023-07-13T00:10:31;99551.61;;;20.21;58.32
42003;BME280;27693;50.506;30.832;2023-07-13T00:11:34;99548.55;;;20.16;59.46
42003;BME280;27693;50.506;30.832;2023-07-13T00:12:38;99544.23;;;20.15;59.01
42003;BME280;27693;50.506;30.832;2023-07-13T00:13:42;99538.25;;;20.13;58.65
42003;BME280;27693;50.506;30.832;2023-07-13T00:14:45;99536.72;;;20.10;58.99
42003;BME280;27693;50.506;30.832;2023-07-13T00:15:47;99531.58;;;20.09;59.05
42003;BME280;27693;50.506;30.832;2023-07-13T00:16:50;99532.55;;;20.08;58.70
42003;BME280;27693;50.506;30.832;2023-07-13T00:17:55;99524.62;;;20.08;58.23
42003;BME280;27693;50.506;30.832;2023-07-13T00:18:57;99524.62;;;20.08;58.58
42003;BME280;27693;50.506;30.832;2023-07-13T00:20:02;99527.97;;;20.10;58.96
42003;BME280;27693;50.506;30.832;2023-07-13T00:21:06;99521.98;;;20.08;60.11
42003;BME280;27693;50.506;30.832;2023-07-13T00:22:09;99521.98;;;20.08;60.11
42003;BME280;27693;50.506;30.832;2023-07-13T00:23:12;99516.28;;;20.03;60.16
42003;BME280;27693;50.506;30.832;2023-07-13T00:24:18;99523.50;;;20.01;60.10
42003;BME280;27693;50.506;30.832;2023-07-13T00:25:23;99523.23;;;20.04;60.32
42003;BME280;27693;50.506;30.832;2023-07-13T00:26:30;99523.92;;;20.06;60.23
42003;BME280;27693;50.506;30.832;2023-07-13T00:27:34;99516.00;;;20.06;60.25
42003;BME280;27693;50.506;30.832;2023-07-13T00:28:37;99514.32;;;20.05;61.42
42003;BME280;27693;50.506;30.832;2023-07-13T00:29:41;99512.53;;;20.05;60.42
42003;BME280;27693;50.506;30.832;2023-07-13T00:30:44;99514.32;;;20.05;59.98
42003;BME280;27693;50.506;30.832;2023-07-13T00:31:48;99509.89;;;20.05;60.00
42003;BME280;27693;50.506;30.832;2023-07-13T00:32:52;99512.39;;;20.07;60.37
42003;BME280;27693;50.506;30.832;2023-07-13T00:33:56;99507.66;;;20.01;60.76
42003;BME280;27693;50.506;30.832;2023-07-13T00:34:58;99503.63;;;19.97;60.71
42003;BME280;27693;50.506;30.832;2023-07-13T00:36:02;99502.36;;;19.91;61.51
42003;BME280;27693;50.506;30.832;2023-07-13T00:37:06;99498.34;;;19.87;61.59
42003;BME280;27693;50.506;30.832;2023-07-13T00:38:10;99499.16;;;19.87;62.15
42003;BME280;27693;50.506;30.832;2023-07-13T00:39:12;99502.22;;;19.92;62.05
42003;BME280;27693;50.506;30.832;2023-07-13T00:40:16;99496.94;;;19.92;61.58
42003;BME280;27693;50.506;30.832;2023-07-13T00:41:19;99491.95;;;19.89;61.84
42003;BME280;27693;50.506;30.832;2023-07-13T00:42:22;99492.91;;;19.88;61.38
42003;BME280;27693;50.506;30.832;2023-07-13T00:43:26;99492.34;;;19.85;61.98
42003;BME280;27693;50.506;30.832;2023-07-13T00:44:30;99490.78;;;19.82;62.06
42003;BME280;27693;50.506;30.832;2023-07-13T00:46:48;99480.23;;;19.82;63.43
42003;BME280;27693;50.506;30.832;2023-07-13T00:47:51;99485.77;;;19.79;62.97
42003;BME280;27693;50.506;30.832;2023-07-13T00:48:55;99483.13;;;19.79;62.84
42003;BME280;27693;50.506;30.832;2023-07-13T00:49:59;99483.41;;;19.76;62.95
42003;BME280;27693;50.506;30.832;2023-07-13T00:51:02;99478.39;;;19.73;63.19
42003;BME280;27693;50.506;30.832;2023-07-13T00:52:07;99485.03;;;19.67;63.24
42003;BME280;27693;50.506;30.832;2023-07-13T00:53:12;99484.21;;;19.67;63.36
42003;BME280;27693;50.506;30.832;2023-07-13T00:54:21;99482.53;;;19.66;63.11
42003;BME280;27693;50.506;30.832;2023-07-13T00:55:23;99481.83;;;19.63;63.29
42003;BME280;27693;50.506;30.832;2023-07-13T00:56:26;99487.25;;;19.62;63.31
42003;BME280;27693;50.506;30.832;2023-07-13T00:57:31;99484.47;;;19.63;63.22
42003;BME280;27693;50.506;30.832;2023-07-13T00:58:35;99481.41;;;19.58;64.07
42003;BME280;27693;50.506;30.832;2023-07-13T00:59:42;99487.11;;;19.63;63.58
42003;BME280;27693;50.506;30.832;2023-07-13T01:00:46;99482.83;;;19.62;64.11
42003;BME280;27693;50.506;30.832;2023-07-13T01:01:51;99485.31;;;19.64;64.08
42003;BME280;27693;50.506;30.832;2023-07-13T01:02:53;99485.72;;;19.59;64.24
42003;BME280;27693;50.506;30.832;2023-07-13T01:03:56;99485.29;;;19.54;64.14
42003;BME280;27693;50.506;30.832;2023-07-13T01:05:00;99480.02;;;19.54;64.25
42003;BME280;27693;50.506;30.832;2023-07-13T01:06:04;99483.62;;;19.53;64.42
42003;BME280;27693;50.506;30.832;2023-07-13T01:07:07;99481.95;;;19.52;64.52
42003;BME280;27693;50.506;30.832;2023-07-13T01:08:11;99478.48;;;19.52;64.35
42003;BME280;27693;50.506;30.832;2023-07-13T01:09:14;99485.83;;;19.48;65.04
42003;BME280;27693;50.506;30.832;2023-07-13T01:10:22;99483.19;;;19.48;64.66
42003;BME280;27693;50.506;30.832;2023-07-13T01:11:26;99473.60;;;19.47;64.51
42003;BME280;27693;50.506;30.832;2023-07-13T01:12:29;99479.12;;;19.44;64.93
42003;BME280;27693;50.506;30.832;2023-07-13T01:13:33;99474.82;;;19.43;65.36
42003;BME280;27693;50.506;30.832;2023-07-13T01:14:36;99468.58;;;19.44;64.66
42003;BME280;27693;50.506;30.832;2023-07-13T01:15:41;99478.02;;;19.46;63.95
42003;BME280;27693;50.506;30.832;2023-07-13T01:16:47;99480.66;;;19.46;64.95
42003;BME280;27693;50.506;30.832;2023-07-13T01:17:50;99471.92;;;19.46;65.46
42003;BME280;27693;50.506;30.832;2023-07-13T01:18:56;99479.02;;;19.45;64.73
42003;BME280;27693;50.506;30.832;2023-07-13T01:20:00;99471.67;;;19.49;65.15
42003;BME280;27693;50.506;30.832;2023-07-13T01:21:04;99468.33;;;19.47;64.85
42003;BME280;27693;50.506;30.832;2023-07-13T01:22:11;99476.49;;;19.44;65.14
42003;BME280;27693;50.506;30.832;2023-07-13T01:23:15;99470.54;;;19.42;65.44
42003;BME280;27693;50.506;30.832;2023-07-13T01:24:17;99472.47;;;19.40;65.72
42003;BME280;27693;50.506;30.832;2023-07-13T01:25:20;99470.93;;;19.37;65.54
42003;BME280;27693;50.506;30.832;2023-07-13T01:26:23;99471.08;;;19.36;65.79
42003;BME280;27693;50.506;30.832;2023-07-13T01:27:26;99473.57;;;19.37;65.28
42003;BME280;27693;50.506;30.832;2023-07-13T01:28:29;99466.05;;;19.33;65.93
42003;BME280;27693;50.506;30.832;2023-07-13T01:29:33;99470.61;;;19.30;66.02
42003;BME280;27693;50.506;30.832;2023-07-13T01:30:38;99467.16;;;19.30;65.75
42003;BME280;27693;50.506;30.832;2023-07-13T01:31:42;99469.66;;;19.31;65.83
42003;BME280;27693;50.506;30.832;2023-07-13T01:32:46;99471.15;;;19.24;65.97
42003;BME280;27693;50.506;30.832;2023-07-13T01:33:48;99466.27;;;19.20;66.56
42003;BME280;27693;50.506;30.832;2023-07-13T01:34:51;99463.23;;;19.24;67.26
42003;BME280;27693;50.506;30.832;2023-07-13T01:35:56;99463.52;;;19.21;66.54
42003;BME280;27693;50.506;30.832;2023-07-13T01:37:02;99469.61;;;19.22;66.87
42003;BME280;27693;50.506;30.832;2023-07-13T01:38:05;99462.80;;;19.19;66.92
42003;BME280;27693;50.506;30.832;2023-07-13T01:39:07;99465.30;;;19.21;66.57
42003;BME280;27693;50.506;30.832;2023-07-13T01:40:11;99475.98;;;19.19;66.80
42003;BME280;27693;50.506;30.832;2023-07-13T01:41:14;99469.75;;;19.20;66.97
42003;BME280;27693;50.506;30.832;2023-07-13T01:42:16;99465.44;;;19.19;66.57
42003;BME280;27693;50.506;30.832;2023-07-13T01:43:19;99464.48;;;19.20;66.71
42003;BME280;27693;50.506;30.832;2023-07-13T01:44:22;99467.37;;;19.17;66.53
42003;BME280;27693;50.506;30.832;2023-07-13T01:45:24;99471.49;;;19.10;66.79
42003;BME280;27693;50.506;30.832;2023-07-13T01:46:26;99480.50;;;19.07;67.38
42003;BME280;27693;50.506;30.832;2023-07-13T01:47:30;99480.50;;;19.07;67.38
42003;BME280;27693;50.506;30.832;2023-07-13T01:48:33;99470.34;;;19.03;67.63
42003;BME280;27693;50.506;30.832;2023-07-13T01:49:35;99468.13;;;18.98;68.85
42003;BME280;27693;50.506;30.832;2023-07-13T01:50:39;99465.59;;;18.96;67.81
42003;BME280;27693;50.506;30.832;2023-07-13T01:51:42;99469.09;;;18.97;68.40
42003;BME280;27693;50.506;30.832;2023-07-13T01:52:46;99465.59;;;18.96;67.97
42003;BME280;27693;50.506;30.832;2023-07-13T01:53:49;99476.28;;;18.95;68.50
42003;BME280;27693;50.506;30.832;2023-07-13T01:54:52;99471.83;;;18.95;68.03
42003;BME280;27693;50.506;30.832;2023-07-13T01:55:55;99474.47;;;18.95;67.81
42003;BME280;27693;50.506;30.832;2023-07-13T01:56:58;99470.55;;;18.90;68.33
42003;BME280;27693;50.506;30.832;2023-07-13T01:58:01;99474.14;;;18.89;67.97
42003;BME280;27693;50.506;30.832;2023-07-13T01:59:05;99462.74;;;18.88;68.10
42003;BME280;27693;50.506;30.832;2023-07-13T02:00:09;99462.16;;;18.84;69.02
42003;BME280;27693;50.506;30.832;2023-07-13T02:01:20;99464.94;;;18.83;69.24
42003;BME280;27693;50.506;30.832;2023-07-13T02:02:23;99460.19;;;18.77;69.56
42003;BME280;27693;50.506;30.832;2023-07-13T02:03:25;99460.19;;;18.77;69.56
42003;BME280;27693;50.506;30.832;2023-07-13T02:04:27;99464.64;;;18.76;69.10
42003;BME280;27693;50.506;30.832;2023-07-13T02:05:30;99464.88;;;18.73;69.36
42003;BME280;27693;50.506;30.832;2023-07-13T02:06:33;99464.17;;;18.71;69.05
42003;BME280;27693;50.506;30.832;2023-07-13T02:07:36;99467.66;;;18.72;69.45
42003;BME280;27693;50.506;30.832;2023-07-13T02:08:40;99464.30;;;18.70;69.54
42003;BME280;27693;50.506;30.832;2023-07-13T02:09:44;99468.61;;;18.71;70.08
42003;BME280;27693;50.506;30.832;2023-07-13T02:10:47;99458.08;;;18.71;69.78
42003;BME280;27693;50.506;30.832;2023-07-13T02:11:49;99469.33;;;18.73;69.30
42003;BME280;27693;50.506;30.832;2023-07-13T02:12:52;99461.42;;;18.73;69.32
42003;BME280;27693;50.506;30.832;2023-07-13T02:13:54;99467.90;;;18.68;70.62
42003;BME280;27693;50.506;30.832;2023-07-13T02:14:57;99459.03;;;18.70;70.75
42003;BME280;27693;50.506;30.832;2023-07-13T02:16:00;99460.13;;;18.67;70.04
42003;BME280;27693;50.506;30.832;2023-07-13T02:17:04;99464.30;;;18.70;69.74
42003;BME280;27693;50.506;30.832;2023-07-13T02:18:07;99465.73;;;18.74;70.05
42003;BME280;27693;50.506;30.832;2023-07-13T02:19:10;99467.14;;;18.78;70.04
42003;BME280;27693;50.506;30.832;2023-07-13T02:20:13;99467.58;;;18.83;70.01
42003;BME280;27693;50.506;30.832;2023-07-13T02:21:15;99464.94;;;18.83;69.62
42003;BME280;27693;50.506;30.832;2023-07-13T02:22:18;99465.22;;;18.80;69.60
42003;BME280;27693;50.506;30.832;2023-07-13T02:23:20;99466.86;;;18.81;70.35
42003;BME280;27693;50.506;30.832;2023-07-13T02:24:23;99468.53;;;18.82;69.62
42003;BME280;27693;50.506;30.832;2023-07-13T02:25:25;99460.19;;;18.77;69.83
42003;BME280;27693;50.506;30.832;2023-07-13T02:26:28;99466.86;;;18.81;69.28
42003;BME280;27693;50.506;30.832;2023-07-13T02:27:31;99453.69;;;18.81;69.44
42003;BME280;27693;50.506;30.832;2023-07-13T02:28:33;99459.95;;;18.80;69.81
42003;BME280;27693;50.506;30.832;2023-07-13T02:29:36;99459.23;;;18.78;69.37
42003;BME280;27693;50.506;30.832;2023-07-13T02:30:38;99456.98;;;18.73;69.36
42003;BME280;27693;50.506;30.832;2023-07-13T02:31:41;99462.11;;;18.75;69.91
42003;BME280;27693;50.506;30.832;2023-07-13T02:32:44;99461.29;;;18.74;69.81
42003;BME280;27693;50.506;30.832;2023-07-13T02:33:47;99460.47;;;18.74;69.61
42003;BME280;27693;50.506;30.832;2023-07-13T02:34:49;99460.47;;;18.74;69.61
42003;BME280;27693;50.506;30.832;2023-07-13T02:35:51;99457.12;;;18.72;69.26
42003;BME280;27693;50.506;30.832;2023-07-13T02:36:54;99458.32;;;18.67;69.40
42003;BME280;27693;50.506;30.832;2023-07-13T02:37:56;99454.28;;;18.63;69.70
42003;BME280;27693;50.506;30.832;2023-07-13T02:39:04;99447.34;;;18.62;69.50
42003;BME280;27693;50.506;30.832;2023-07-13T02:40:09;99455.11;;;18.64;69.58
42003;BME280;27693;50.506;30.832;2023-07-13T02:41:12;99448.19;;;18.63;69.44
42003;BME280;27693;50.506;30.832;2023-07-13T02:42:15;99452.36;;;18.65;70.21
42003;BME280;27693;50.506;30.832;2023-07-13T02:43:18;99447.20;;;18.64;69.41
42003;BME280;27693;50.506;30.832;2023-07-13T02:44:22;99449.73;;;18.65;69.58
42003;BME280;27693;50.506;30.832;2023-07-13T02:45:25;99444.56;;;18.64;69.75
42003;BME280;27693;50.506;30.832;2023-07-13T02:46:30;99448.38;;;18.50;69.92
42003;BME280;27693;50.506;30.832;2023-07-13T02:47:33;99448.12;;;18.53;69.73
42003;BME280;27693;50.506;30.832;2023-07-13T02:48:38;99453.27;;;18.55;69.80
42003;BME280;27693;50.506;30.832;2023-07-13T02:49:41;99456.72;;;18.55;69.97
42003;BME280;27693;50.506;30.832;2023-07-13T02:50:44;99454.46;;;18.50;70.07
42003;BME280;27693;50.506;30.832;2023-07-13T02:51:46;99460.59;;;18.51;69.65
42003;BME280;27693;50.506;30.832;2023-07-13T02:52:49;99466.09;;;18.48;69.91
42003;BME280;27693;50.506;30.832;2023-07-13T02:53:51;99462.05;;;18.44;70.43
42003;BME280;27693;50.506;30.832;2023-07-13T02:54:54;99470.70;;;18.34;71.01
42003;BME280;27693;50.506;30.832;2023-07-13T02:55:56;99469.38;;;18.40;71.36
42003;BME280;27693;50.506;30.832;2023-07-13T02:56:59;99457.61;;;18.44;70.81
42003;BME280;27693;50.506;30.832;2023-07-13T02:58:01;99462.27;;;18.52;70.18
42003;BME280;27693;50.506;30.832;2023-07-13T02:59:04;99462.56;;;18.59;70.09
42003;BME280;27693;50.506;30.832;2023-07-13T03:00:08;99462.56;;;18.59;70.09
42003;BME280;27693;50.506;30.832;2023-07-13T03:01:11;99465.41;;;18.67;69.36
42003;BME280;27693;50.506;30.832;2023-07-13T03:02:14;99459.80;;;18.60;69.70
42003;BME280;27693;50.506;30.832;2023-07-13T03:03:17;99455.38;;;18.61;69.95
42003;BME280;27693;50.506;30.832;2023-07-13T03:04:20;99469.84;;;18.66;69.70
42003;BME280;27693;50.506;30.832;2023-07-13T03:05:24;99457.74;;;18.64;69.70
42003;BME280;27693;50.506;30.832;2023-07-13T03:06:26;99458.45;;;18.66;69.24
42003;BME280;27693;50.506;30.832;2023-07-13T03:07:31;99457.36;;;18.68;69.29
42003;BME280;27693;50.506;30.832;2023-07-13T03:08:35;99460.27;;;18.65;69.19
42003;BME280;27693;50.506;30.832;2023-07-13T03:09:38;99455.11;;;18.64;69.23
42003;BME280;27693;50.506;30.832;2023-07-13T03:10:41;99452.88;;;18.59;69.59
42003;BME280;27693;50.506;30.832;2023-07-13T03:11:44;99458.84;;;18.61;69.48
42003;BME280;27693;50.506;30.832;2023-07-13T03:12:49;99457.74;;;18.64;70.55
42003;BME280;27693;50.506;30.832;2023-07-13T03:13:53;99465.52;;;18.44;70.08
42003;BME280;27693;50.506;30.832;2023-07-13T03:14:57;99452.69;;;18.51;72.75
42003;BME280;27693;50.506;30.832;2023-07-13T03:15:59;99450.48;;;18.56;70.12
42003;BME280;27693;50.506;30.832;2023-07-13T03:17:02;99450.48;;;18.56;70.12
42003;BME280;27693;50.506;30.832;2023-07-13T03:18:06;99452.88;;;18.59;70.26
42003;BME280;27693;50.506;30.832;2023-07-13T03:19:09;99453.19;;;18.66;69.88
42003;BME280;27693;50.506;30.832;2023-07-13T03:20:12;99448.25;;;18.73;69.38
42003;BME280;27693;50.506;30.832;2023-07-13T03:21:15;99454.20;;;18.75;69.24
42003;BME280;27693;50.506;30.832;2023-07-13T03:22:18;99448.36;;;18.71;69.82
42003;BME280;27693;50.506;30.832;2023-07-13T03:23:22;99449.34;;;18.70;69.40
42003;BME280;27693;50.506;30.832;2023-07-13T03:24:24;99447.40;;;18.72;69.17
42003;BME280;27693;50.506;30.832;2023-07-13T03:25:27;99453.52;;;18.73;69.38
42003;BME280;27693;50.506;30.832;2023-07-13T03:26:30;99456.16;;;18.73;69.81
42003;BME280;27693;50.506;30.832;2023-07-13T03:27:33;99453.52;;;18.73;69.88
42003;BME280;27693;50.506;30.832;2023-07-13T03:28:37;99456.98;;;18.73;70.11
42003;BME280;27693;50.506;30.832;2023-07-13T03:29:40;99452.42;;;18.75;70.43
42003;BME280;27693;50.506;30.832;2023-07-13T03:30:43;99454.67;;;18.80;69.65
42003;BME280;27693;50.506;30.832;2023-07-13T03:31:45;99459.67;;;18.83;69.69
42003;BME280;27693;50.506;30.832;2023-07-13T03:32:48;99453.30;;;18.86;70.22
42003;BME280;27693;50.506;30.832;2023-07-13T03:33:52;99454.84;;;18.88;69.17
42003;BME280;27693;50.506;30.832;2023-07-13T03:34:55;99460.25;;;18.87;69.17
42003;BME280;27693;50.506;30.832;2023-07-13T03:35:58;99458.57;;;18.86;68.97
42003;BME280;27693;50.506;30.832;2023-07-13T03:37:02;99463.41;;;18.80;69.47
42003;BME280;27693;50.506;30.832;2023-07-13T03:38:05;99465.90;;;18.82;69.61
42003;BME280;27693;50.506;30.832;2023-07-13T03:39:09;99461.34;;;18.84;69.37
42003;BME280;27693;50.506;30.832;2023-07-13T03:40:14;99453.69;;;18.81;69.47
42003;BME280;27693;50.506;30.832;2023-07-13T03:41:18;99457.31;;;18.80;69.38
42003;BME280;27693;50.506;30.832;2023-07-13T03:42:22;99456.59;;;18.78;69.66
42003;BME280;27693;50.506;30.832;2023-07-13T03:43:26;99451.52;;;18.65;70.19
42003;BME280;27693;50.506;30.832;2023-07-13T03:44:28;99452.95;;;18.69;69.90
42003;BME280;27693;50.506;30.832;2023-07-13T03:45:31;99456.27;;;18.71;70.09
42003;BME280;27693;50.506;30.832;2023-07-13T03:46:34;99456.48;;;18.58;70.88
42003;BME280;27693;50.506;30.832;2023-07-13T03:47:38;99457.05;;;18.62;70.78
42003;BME280;27693;50.506;30.832;2023-07-13T03:48:45;99454.62;;;18.70;70.45
42003;BME280;27693;50.506;30.832;2023-07-13T03:49:48;99459.95;;;18.80;70.07
42003;BME280;27693;50.506;30.832;2023-07-13T03:50:51;99456.08;;;18.84;70.02
42003;BME280;27693;50.506;30.832;2023-07-13T03:51:53;99451.98;;;18.91;69.75
42003;BME280;27693;50.506;30.832;2023-07-13T03:52:58;99451.45;;;18.97;69.77
42003;BME280;27693;50.506;30.832;2023-07-13T03:54:01;99463.97;;;19.05;69.11
42003;BME280;27693;50.506;30.832;2023-07-13T03:55:06;99455.62;;;19.00;69.30
42003;BME280;27693;50.506;30.832;2023-07-13T03:56:10;99458.66;;;18.95;69.71
42003;BME280;27693;50.506;30.832;2023-07-13T03:57:13;99447.29;;;18.95;69.77
42003;BME280;27693;50.506;30.832;2023-07-13T03:58:34;99458.66;;;18.95;70.09
42003;BME280;27693;50.506;30.832;2023-07-13T03:59:45;99448.60;;;18.89;70.26
42003;BME280;27693;50.506;30.832;2023-07-13T04:00:49;99447.15;;;18.96;69.69
42003;BME280;27693;50.506;30.832;2023-07-13T04:01:53;99447.86;;;18.98;69.56
42003;BME280;27693;50.506;30.832;2023-07-13T04:02:59;99450.50;;;18.98;70.31
42003;BME280;27693;50.506;30.832;2023-07-13T04:04:02;99454.53;;;19.03;70.46
42003;BME280;27693;50.506;30.832;2023-07-13T04:05:06;99459.80;;;19.03;70.49
42003;BME280;27693;50.506;30.832;2023-07-13T04:06:16;99451.21;;;19.01;70.45
42003;BME280;27693;50.506;30.832;2023-07-13T04:07:20;99459.27;;;19.09;69.99
42003;BME280;27693;50.506;30.832;2023-07-13T04:08:23;99459.02;;;19.12;70.30
42003;BME280;27693;50.506;30.832;2023-07-13T04:09:27;99454.89;;;19.19;70.64
42003;BME280;27693;50.506;30.832;2023-07-13T04:10:30;99465.73;;;19.26;70.39
42003;BME280;27693;50.506;30.832;2023-07-13T04:11:33;99457.53;;;19.19;70.53
42003;BME280;27693;50.506;30.832;2023-07-13T04:12:36;99459.89;;;19.22;70.38
42003;BME280;27693;50.506;30.832;2023-07-13T04:13:39;99468.26;;;19.27;70.38
42003;BME280;27693;50.506;30.832;2023-07-13T04:14:41;99468.30;;;19.37;70.17
42003;BME280;27693;50.506;30.832;2023-07-13T04:15:44;99458.70;;;19.36;70.15
42003;BME280;27693;50.506;30.832;2023-07-13T04:16:47;99459.13;;;19.41;70.07
42003;BME280;27693;50.506;30.832;2023-07-13T04:17:50;99464.73;;;19.48;71.14
42003;BME280;27693;50.506;30.832;2023-07-13T04:18:52;99459.45;;;19.48;70.27
42003;BME280;27693;50.506;30.832;2023-07-13T04:19:59;99461.63;;;19.43;70.08
42003;BME280;27693;50.506;30.832;2023-07-13T04:21:03;99473.60;;;19.47;69.96
42003;BME280;27693;50.506;30.832;2023-07-13T04:22:05;99468.97;;;19.39;69.63
42003;BME280;27693;50.506;30.832;2023-07-13T04:23:08;99468.89;;;19.51;70.92
42003;BME280;27693;50.506;30.832;2023-07-13T04:24:10;99467.55;;;19.66;70.24
42003;BME280;27693;50.506;30.832;2023-07-13T04:25:13;99465.57;;;19.58;69.40
42003;BME280;27693;50.506;30.832;2023-07-13T04:26:16;99461.41;;;19.56;68.92
42003;BME280;27693;50.506;30.832;2023-07-13T04:27:19;99459.50;;;19.68;69.56
42003;BME280;27693;50.506;30.832;2023-07-13T04:28:23;99457.17;;;19.84;70.34
42003;BME280;27693;50.506;30.832;2023-07-13T04:29:25;99459.37;;;19.79;68.82
42003;BME280;27693;50.506;30.832;2023-07-13T04:30:28;99455.62;;;19.82;68.78
42003;BME280;27693;50.506;30.832;2023-07-13T04:31:31;99458.37;;;19.60;68.93
42003;BME280;27693;50.506;30.832;2023-07-13T04:32:33;99457.83;;;19.67;69.35
42003;BME280;27693;50.506;30.832;2023-07-13T04:33:38;99456.73;;;19.79;69.79
42003;BME280;27693;50.506;30.832;2023-07-13T04:34:41;99455.95;;;19.88;69.13
42003;BME280;27693;50.506;30.832;2023-07-13T04:35:44;99457.84;;;19.76;68.41
42003;BME280;27693;50.506;30.832;2023-07-13T04:36:49;99454.98;;;19.89;69.90
42003;BME280;27693;50.506;30.832;2023-07-13T04:37:51;99457.89;;;19.96;68.01
42003;BME280;27693;50.506;30.832;2023-07-13T04:38:55;99452.36;;;20.09;68.84
42003;BME280;27693;50.506;30.832;2023-07-13T04:39:58;99451.94;;;19.94;67.00
42003;BME280;27693;50.506;30.832;2023-07-13T04:41:02;99449.02;;;20.07;68.83
42003;BME280;27693;50.506;30.832;2023-07-13T04:42:05;99453.73;;;20.13;66.74
42003;BME280;27693;50.506;30.832;2023-07-13T04:43:08;99451.24;;;20.21;67.52
42003;BME280;27693;50.506;30.832;2023-07-13T04:44:10;99443.17;;;20.13;66.71
42003;BME280;27693;50.506;30.832;2023-07-13T04:45:15;99449.31;;;20.04;67.81
42003;BME280;27693;50.506;30.832;2023-07-13T04:46:18;99446.67;;;20.04;67.02
42003;BME280;27693;50.506;30.832;2023-07-13T04:47:21;99447.48;;;20.14;67.05
42003;BME280;27693;50.506;30.832;2023-07-13T04:48:26;99436.22;;;20.22;66.62
42003;BME280;27693;50.506;30.832;2023-07-13T04:49:28;99436.22;;;20.22;66.62
42003;BME280;27693;50.506;30.832;2023-07-13T04:50:31;99450.42;;;20.11;66.04
42003;BME280;27693;50.506;30.832;2023-07-13T04:51:35;99449.86;;;20.27;65.93
42003;BME280;27693;50.506;30.832;2023-07-13T04:52:37;99456.94;;;20.26;65.42
42003;BME280;27693;50.506;30.832;2023-07-13T04:53:39;99460.98;;;20.31;65.14
42003;BME280;27693;50.506;30.832;2023-07-13T04:54:41;99466.13;;;20.22;65.44
42003;BME280;27693;50.506;30.832;2023-07-13T04:55:44;99463.19;;;20.25;65.39
42003;BME280;27693;50.506;30.832;2023-07-13T04:56:47;99464.44;;;20.41;66.55
42003;BME280;27693;50.506;30.832;2023-07-13T04:57:50;99471.69;;;20.49;65.72
42003;BME280;27693;50.506;30.832;2023-07-13T04:58:53;99472.08;;;20.64;65.02
42003;BME280;27693;50.506;30.832;2023-07-13T04:59:55;99458.03;;;20.53;65.12
42003;BME280;27693;50.506;30.832;2023-07-13T05:01:02;99471.94;;;20.55;64.14
42003;BME280;27693;50.506;30.832;2023-07-13T05:02:05;99470.67;;;20.59;65.00
42003;BME280;27693;50.506;30.832;2023-07-13T05:03:08;99463.17;;;20.65;64.75
42003;BME280;27693;50.506;30.832;2023-07-13T05:04:10;99467.35;;;20.77;65.58
42003;BME280;27693;50.506;30.832;2023-07-13T05:05:13;99476.20;;;20.96;64.88
42003;BME280;27693;50.506;30.832;2023-07-13T05:06:15;99478.27;;;21.02;63.38
42003;BME280;27693;50.506;30.832;2023-07-13T05:07:18;99488.85;;;21.02;63.36
42003;BME280;27693;50.506;30.832;2023-07-13T05:08:20;99483.41;;;21.13;63.43
42003;BME280;27693;50.506;30.832;2023-07-13T05:09:23;99477.03;;;21.06;62.36
42003;BME280;27693;50.506;30.832;2023-07-13T05:10:26;99473.95;;;21.01;62.66
42003;BME280;27693;50.506;30.832;2023-07-13T05:11:28;99482.02;;;21.09;62.63
42003;BME280;27693;50.506;30.832;2023-07-13T05:12:30;99488.76;;;20.94;62.33
42003;BME280;27693;50.506;30.832;2023-07-13T05:13:33;99489.73;;;20.93;62.19
42003;BME280;27693;50.506;30.832;2023-07-13T05:14:36;99489.30;;;20.87;62.45
42003;BME280;27693;50.506;30.832;2023-07-13T05:15:40;99479.83;;;20.95;62.76
42003;BME280;27693;50.506;30.832;2023-07-13T05:16:44;99487.88;;;21.03;62.23
42003;BME280;27693;50.506;30.832;2023-07-13T05:17:48;99486.17;;;21.12;62.02
42003;BME280;27693;50.506;30.832;2023-07-13T05:18:51;99491.47;;;21.12;61.65
42003;BME280;27693;50.506;30.832;2023-07-13T05:19:54;99491.04;;;21.16;62.00
42003;BME280;27693;50.506;30.832;2023-07-13T05:20:58;99488.94;;;21.20;61.89
42003;BME280;27693;50.506;30.832;2023-07-13T05:22:01;99489.79;;;21.20;61.58
42003;BME280;27693;50.506;30.832;2023-07-13T05:23:04;99483.91;;;21.27;61.88
42003;BME280;27693;50.506;30.832;2023-07-13T05:24:07;99477.19;;;21.32;61.14
42003;BME280;27693;50.506;30.832;2023-07-13T05:25:11;99487.34;;;21.37;60.62
42003;BME280;27693;50.506;30.832;2023-07-13T05:26:16;99485.39;;;21.39;60.67
42003;BME280;27693;50.506;30.832;2023-07-13T05:27:18;99480.80;;;21.41;61.03
42003;BME280;27693;50.506;30.832;2023-07-13T05:28:21;99487.73;;;21.42;60.27
42003;BME280;27693;50.506;30.832;2023-07-13T05:29:24;99477.25;;;21.50;60.15
42003;BME280;27693;50.506;30.832;2023-07-13T05:30:26;99477.95;;;21.52;59.33
42003;BME280;27693;50.506;30.832;2023-07-13T05:31:29;99472.34;;;21.55;59.74
42003;BME280;27693;50.506;30.832;2023-07-13T05:32:33;99480.67;;;21.70;60.08
42003;BME280;27693;50.506;30.832;2023-07-13T05:33:36;99468.63;;;21.76;59.19